Time;durP1;ratioP1;P1;durP2;ratioP2;P2;SDS_P1;SDS_P2;PMS_P1;PMS_P2;Temp;Humidity;BMP_temperature;BMP_pressure;BME280_temperature;BME280_humidity;BME280_pressure;Samples;Min_cycle;Max_cycle;Signal;HPM_P1;HPM_P2
2022/12/30 00:00:16;;;;;;;19.30;3.67;;;;;;;;;;5040789;28;20132;-86
2022/12/30 00:02:42;;;;;;;27.15;5.05;;;;;;;;;;5041503;28;20374;-86
2022/12/30 00:05:08;;;;;;;21.27;3.63;;;;;;;;;;5024344;28;20063;-86
2022/12/30 00:07:34;;;;;;;19.60;3.73;;;;;;;;;;5040843;28;20322;-86
2022/12/30 00:10:01;;;;;;;25.67;4.60;;;;;;;;;;5057532;28;20287;-86
2022/12/30 00:34:43;;;;;;;21.73;5.07;;;;;;;;;;5073490;28;20381;-86
2022/12/30 00:37:09;;;;;;;27.97;4.40;;;;;;;;;;5040192;28;20286;-86
2022/12/30 00:39:35;;;;;;;25.25;5.03;;;;;;;;;;5040052;28;20371;-86
2022/12/30 00:44:46;;;;;;;27.77;4.27;;;;;;;;;;5073243;28;20325;-86
2022/12/30 00:47:13;;;;;;;21.77;4.20;;;;;;;;;;5039904;28;20328;-87
2022/12/30 00:57:53;;;;;;;25.08;4.22;;;;;;;;;;5039886;28;20057;-86
2022/12/30 01:00:19;;;;;;;31.48;4.40;;;;;;;;;;5036233;28;20525;-86
2022/12/30 01:02:45;;;;;;;25.88;4.18;;;;;;;;;;5036000;28;20053;-86
2022/12/30 01:05:11;;;;;;;23.63;5.60;;;;;;;;;;5036355;28;20049;-86
2022/12/30 01:07:37;;;;;;;26.15;4.43;;;;;;;;;;5037132;28;20374;-86
2022/12/30 01:10:03;;;;;;;24.53;4.03;;;;;;;;;;5036089;28;20520;-86
2022/12/30 01:12:30;;;;;;;28.23;4.60;;;;;;;;;;5020146;28;20605;-87
2022/12/30 01:14:56;;;;;;;37.38;4.78;;;;;;;;;;5036172;28;20379;-87
2022/12/30 01:17:27;;;;;;;22.88;4.72;;;;;;;;;;5036749;28;20044;-87
2022/12/30 01:19:53;;;;;;;23.20;3.67;;;;;;;;;;5036809;28;20059;-87
2022/12/30 01:22:20;;;;;;;24.23;4.78;;;;;;;;;;5052607;28;20852;-87
2022/12/30 01:24:46;;;;;;;26.50;3.70;;;;;;;;;;5053339;28;20135;-86
2022/12/30 01:27:12;;;;;;;28.38;3.47;;;;;;;;;;5035857;28;20128;-87
2022/12/30 01:29:40;;;;;;;23.20;3.50;;;;;;;;;;5036144;28;20499;-86
2022/12/30 01:32:08;;;;;;;27.37;3.93;;;;;;;;;;5035770;28;20361;-86
2022/12/30 01:34:34;;;;;;;27.30;4.72;;;;;;;;;;5036558;28;20291;-87
2022/12/30 01:37:01;;;;;;;30.30;4.13;;;;;;;;;;5035949;28;20087;-86
2022/12/30 01:39:27;;;;;;;22.83;4.27;;;;;;;;;;5052978;28;20052;-87
2022/12/30 01:41:54;;;;;;;23.23;4.10;;;;;;;;;;5035803;28;20291;-86
2022/12/30 01:44:39;;;;;;;25.20;3.90;;;;;;;;;;5053019;28;20053;-86
2022/12/30 01:47:05;;;;;;;22.42;3.97;;;;;;;;;;5035622;28;20784;-87
2022/12/30 01:49:34;;;;;;;24.70;4.10;;;;;;;;;;5035648;28;20142;-87
2022/12/30 01:52:00;;;;;;;29.10;3.83;;;;;;;;;;5052162;28;20283;-86
2022/12/30 01:54:26;;;;;;;21.75;3.83;;;;;;;;;;5051967;28;20060;-87
2022/12/30 01:56:53;;;;;;;24.40;3.97;;;;;;;;;;5035233;28;20045;-86
2022/12/30 01:59:20;;;;;;;23.48;4.55;;;;;;;;;;5035630;28;20291;-87
2022/12/30 02:01:47;;;;;;;30.13;3.97;;;;;;;;;;5052365;28;20128;-87
2022/12/30 02:04:19;;;;;;;26.93;3.97;;;;;;;;;;5035834;28;20341;-87
2022/12/30 02:07:04;;;;;;;21.17;3.72;;;;;;;;;;5036329;28;20280;-87
2022/12/30 02:09:31;;;;;;;26.52;5.00;;;;;;;;;;5051812;28;20052;-87
2022/12/30 02:11:57;;;;;;;24.63;3.63;;;;;;;;;;5035572;28;20048;-87
2022/12/30 02:14:24;;;;;;;23.13;4.07;;;;;;;;;;5052220;28;20307;-87
2022/12/30 02:17:05;;;;;;;27.90;4.40;;;;;;;;;;5035349;28;20292;-87
2022/12/30 02:19:50;;;;;;;21.65;3.78;;;;;;;;;;5052659;28;20287;-87
2022/12/30 02:22:29;;;;;;;22.17;4.15;;;;;;;;;;5051881;28;20049;-86
2022/12/30 02:25:07;;;;;;;28.58;4.05;;;;;;;;;;5036159;28;20131;-87
2022/12/30 02:27:52;;;;;;;29.80;4.55;;;;;;;;;;5052696;28;20603;-87
2022/12/30 02:30:20;;;;;;;29.90;4.28;;;;;;;;;;5051553;28;20057;-87
2022/12/30 02:32:46;;;;;;;25.50;4.57;;;;;;;;;;5035288;28;20063;-87
2022/12/30 02:35:16;;;;;;;29.35;4.72;;;;;;;;;;5035453;28;20338;-87
2022/12/30 02:37:46;;;;;;;28.73;4.25;;;;;;;;;;5035184;28;20490;-86
2022/12/30 02:40:19;;;;;;;28.38;3.38;;;;;;;;;;5051984;28;20063;-87
2022/12/30 02:45:55;;;;;;;27.77;4.23;;;;;;;;;;5052491;28;20298;-87
2022/12/30 02:48:23;;;;;;;28.42;4.70;;;;;;;;;;5052047;28;20287;-87
2022/12/30 02:53:37;;;;;;;28.67;4.43;;;;;;;;;;5056457;28;20279;-86
2022/12/30 02:56:04;;;;;;;29.83;3.87;;;;;;;;;;5042014;28;20291;-87
2022/12/30 02:58:31;;;;;;;21.20;4.30;;;;;;;;;;5042105;28;20782;-87
2022/12/30 03:04:00;;;;;;;23.37;4.10;;;;;;;;;;5075525;28;20045;-87
2022/12/30 03:06:45;;;;;;;34.75;4.68;;;;;;;;;;5041936;28;20393;-87
2022/12/30 03:09:23;;;;;;;24.20;3.47;;;;;;;;;;5058457;28;20131;-86
2022/12/30 03:12:08;;;;;;;30.27;4.40;;;;;;;;;;5041503;28;20060;-87
2022/12/30 03:14:37;;;;;;;25.33;4.33;;;;;;;;;;5058344;28;20371;-87
2022/12/30 03:17:12;;;;;;;28.65;4.60;;;;;;;;;;5058917;28;20290;-87
2022/12/30 03:19:38;;;;;;;;;;;;;;;;;;5042610;28;20526;-87
2022/12/30 03:22:06;;;;;;;28.10;4.60;;;;;;;;;;5041548;28;20019;-87
2022/12/30 03:27:21;;;;;;;28.10;3.83;;;;;;;;;;5074907;28;20135;-87
2022/12/30 03:29:50;;;;;;;33.40;4.60;;;;;;;;;;5041429;28;20144;-86
2022/12/30 03:32:18;;;;;;;20.35;4.00;;;;;;;;;;5041437;28;20059;-86
2022/12/30 03:34:44;;;;;;;23.80;4.30;;;;;;;;;;5058047;28;20472;-86
2022/12/30 03:37:19;;;;;;;34.08;5.28;;;;;;;;;;5041321;28;20106;-86
2022/12/30 03:39:45;;;;;;;;;;;;;;;;;;5058258;28;20089;-87
2022/12/30 03:42:12;;;;;;;31.98;4.60;;;;;;;;;;5074490;28;19973;-87
2022/12/30 03:44:42;;;;;;;24.35;4.65;;;;;;;;;;5024583;28;20055;-87
2022/12/30 03:47:12;;;;;;;31.92;4.43;;;;;;;;;;5057734;28;20053;-87
2022/12/30 03:49:41;;;;;;;28.10;4.55;;;;;;;;;;5057672;28;20059;-87
2022/12/30 03:52:07;;;;;;;31.50;5.33;;;;;;;;;;5057436;28;20404;-86
2022/12/30 03:54:33;;;;;;;25.90;5.20;;;;;;;;;;5021747;28;20663;-87
2022/12/30 03:56:59;;;;;;;21.85;4.65;;;;;;;;;;5038659;28;20413;-87
2022/12/30 03:59:25;;;;;;;22.13;4.68;;;;;;;;;;5037523;28;20049;-86
2022/12/30 04:01:51;;;;;;;21.88;4.60;;;;;;;;;;5037965;28;20132;-86
2022/12/30 04:04:19;;;;;;;26.33;4.20;;;;;;;;;;5038223;28;20143;-87
2022/12/30 04:06:45;;;;;;;25.63;4.43;;;;;;;;;;5054060;28;20493;-86
2022/12/30 04:09:11;;;;;;;23.20;4.70;;;;;;;;;;5054068;28;20135;-86
2022/12/30 04:11:37;;;;;;;30.83;4.53;;;;;;;;;;5054308;28;20053;-87
2022/12/30 04:14:03;;;;;;;27.30;4.72;;;;;;;;;;5053945;28;20053;-86
2022/12/30 04:16:30;;;;;;;26.85;4.20;;;;;;;;;;5053958;28;20084;-86
2022/12/30 04:18:56;;;;;;;25.17;4.10;;;;;;;;;;5037298;28;20048;-86
2022/12/30 04:21:22;;;;;;;27.40;5.40;;;;;;;;;;5036871;28;20048;-86
2022/12/30 04:23:48;;;;;;;23.73;4.97;;;;;;;;;;5053760;28;20056;-87
2022/12/30 04:26:14;;;;;;;21.95;4.10;;;;;;;;;;5053981;28;20057;-86
2022/12/30 04:28:40;;;;;;;22.27;4.20;;;;;;;;;;5037065;28;20056;-87
2022/12/30 04:31:06;;;;;;;26.77;4.80;;;;;;;;;;5053669;28;20493;-87
2022/12/30 04:33:33;;;;;;;23.55;4.80;;;;;;;;;;5020597;28;20084;-87
2022/12/30 04:35:59;;;;;;;26.35;4.68;;;;;;;;;;5036946;28;20568;-87
2022/12/30 04:38:25;;;;;;;20.60;3.83;;;;;;;;;;5036849;28;20049;-86
2022/12/30 04:40:51;;;;;;;25.17;4.88;;;;;;;;;;5053173;28;20047;-86
2022/12/30 04:43:17;;;;;;;21.80;3.92;;;;;;;;;;5037070;28;20056;-86
2022/12/30 04:45:44;;;;;;;26.67;3.75;;;;;;;;;;5036878;28;20080;-87
2022/12/30 04:48:10;;;;;;;25.00;4.00;;;;;;;;;;5053384;28;20124;-86
2022/12/30 04:50:36;;;;;;;22.13;4.10;;;;;;;;;;5053305;28;20053;-86
2022/12/30 04:53:02;;;;;;;16.50;2.95;;;;;;;;;;5036636;28;20045;-87
2022/12/30 04:55:28;;;;;;;25.88;4.90;;;;;;;;;;5052412;28;20485;-86
2022/12/30 04:57:55;;;;;;;19.95;3.70;;;;;;;;;;5053109;28;20415;-87
2022/12/30 05:00:21;;;;;;;20.40;3.90;;;;;;;;;;5052951;28;20064;-87
2022/12/30 05:02:47;;;;;;;21.98;3.38;;;;;;;;;;5036383;28;20186;-86
2022/12/30 05:05:13;;;;;;;23.27;4.75;;;;;;;;;;5053085;28;20131;-87
2022/12/30 05:07:39;;;;;;;23.60;3.85;;;;;;;;;;5053208;28;20175;-87
2022/12/30 05:10:05;;;;;;;20.88;3.47;;;;;;;;;;5037070;28;20480;-86
2022/12/30 05:12:32;;;;;;;16.77;3.13;;;;;;;;;;5052643;28;20064;-86
2022/12/30 05:14:58;;;;;;;18.92;3.83;;;;;;;;;;5052711;28;20095;-86
2022/12/30 05:17:24;;;;;;;16.60;3.92;;;;;;;;;;5036494;28;20084;-86
2022/12/30 05:19:50;;;;;;;20.45;3.40;;;;;;;;;;5053098;28;20084;-86
2022/12/30 05:22:16;;;;;;;20.95;3.85;;;;;;;;;;5052936;28;20131;-86
2022/12/30 05:27:27;;;;;;;23.65;3.42;;;;;;;;;;5039354;28;20370;-86
2022/12/30 05:29:53;;;;;;;16.95;3.45;;;;;;;;;;5036067;28;20053;-87
2022/12/30 05:32:19;;;;;;;19.77;3.45;;;;;;;;;;5036666;28;20118;-86
2022/12/30 05:34:45;;;;;;;21.05;4.20;;;;;;;;;;5035690;28;20512;-85
2022/12/30 05:37:11;;;;;;;17.25;4.28;;;;;;;;;;5019502;28;20057;-87
2022/12/30 05:39:37;;;;;;;22.27;3.75;;;;;;;;;;5052353;28;20045;-86
2022/12/30 05:42:03;;;;;;;23.30;3.92;;;;;;;;;;5035768;28;20095;-87
2022/12/30 05:44:30;;;;;;;19.52;4.00;;;;;;;;;;5052076;28;20044;-87
2022/12/30 05:46:57;;;;;;;17.15;3.95;;;;;;;;;;5052287;28;20060;-87
2022/12/30 05:49:23;;;;;;;16.38;3.65;;;;;;;;;;5036518;28;20084;-87
2022/12/30 05:51:49;;;;;;;17.45;4.70;;;;;;;;;;5035319;28;20088;-87
2022/12/30 05:54:16;;;;;;;21.15;4.97;;;;;;;;;;5052053;28;20481;-87
2022/12/30 05:56:42;;;;;;;16.27;4.55;;;;;;;;;;5052301;28;20056;-86
2022/12/30 05:59:09;;;;;;;20.35;4.60;;;;;;;;;;5019290;28;20052;-86
2022/12/30 06:01:35;;;;;;;18.55;4.25;;;;;;;;;;5034908;28;20045;-86
2022/12/30 06:04:02;;;;;;;18.20;4.35;;;;;;;;;;5035630;28;20478;-87
2022/12/30 06:06:28;;;;;;;23.10;5.40;;;;;;;;;;5052133;28;20056;-87
2022/12/30 06:08:54;;;;;;;25.65;5.38;;;;;;;;;;5036331;28;20052;-87
2022/12/30 06:11:20;;;;;;;18.65;5.22;;;;;;;;;;5052307;28;20057;-87
2022/12/30 06:13:46;;;;;;;18.38;4.35;;;;;;;;;;5035455;28;20052;-86
2022/12/30 06:16:12;;;;;;;17.42;5.18;;;;;;;;;;5052017;28;20084;-86
2022/12/30 06:18:39;;;;;;;17.30;4.63;;;;;;;;;;5035488;28;20048;-86
2022/12/30 06:21:05;;;;;;;18.20;4.40;;;;;;;;;;5051729;28;20041;-86
2022/12/30 06:23:31;;;;;;;24.88;4.78;;;;;;;;;;5053626;28;20048;-86
2022/12/30 06:25:58;;;;;;;25.55;4.85;;;;;;;;;;5055761;28;20500;-86
2022/12/30 06:28:25;;;;;;;20.20;5.80;;;;;;;;;;5055872;28;20126;-86
2022/12/30 06:30:51;;;;;;;18.88;5.22;;;;;;;;;;5022572;28;20044;-87
2022/12/30 06:33:18;;;;;;;20.08;4.68;;;;;;;;;;5056175;28;20060;-86
2022/12/30 06:35:45;;;;;;;22.35;5.03;;;;;;;;;;5039252;28;20080;-86
2022/12/30 06:38:11;;;;;;;21.83;4.40;;;;;;;;;;5056548;28;20045;-86
2022/12/30 06:40:37;;;;;;;19.35;4.93;;;;;;;;;;5055357;28;20500;-86
2022/12/30 06:43:03;;;;;;;22.52;4.65;;;;;;;;;;5039787;28;20182;-86
2022/12/30 06:45:30;;;;;;;22.17;5.10;;;;;;;;;;5055953;28;20063;-86
2022/12/30 06:47:56;;;;;;;21.10;5.22;;;;;;;;;;5039178;28;20390;-87
2022/12/30 06:50:22;;;;;;;18.95;4.93;;;;;;;;;;5039014;28;20087;-87
2022/12/30 06:52:48;;;;;;;18.50;4.55;;;;;;;;;;5055190;28;20041;-86
2022/12/30 06:55:16;;;;;;;22.58;4.22;;;;;;;;;;5038423;28;20456;-87
2022/12/30 06:57:42;;;;;;;20.05;4.70;;;;;;;;;;5039384;28;20074;-86
2022/12/30 07:00:08;;;;;;;16.50;4.90;;;;;;;;;;5022252;28;20128;-86
2022/12/30 07:02:35;;;;;;;26.90;4.97;;;;;;;;;;5022369;28;20045;-86
2022/12/30 07:05:01;;;;;;;18.90;3.80;;;;;;;;;;5038682;28;20049;-86
2022/12/30 07:07:27;;;;;;;17.05;4.43;;;;;;;;;;5038712;28;20048;-86
2022/12/30 07:09:53;;;;;;;22.65;4.72;;;;;;;;;;5039335;28;20185;-86
2022/12/30 07:12:19;;;;;;;18.00;4.07;;;;;;;;;;5055137;28;20084;-86
2022/12/30 07:14:46;;;;;;;16.50;3.45;;;;;;;;;;5055073;28;20053;-86
2022/12/30 07:17:12;;;;;;;27.48;4.85;;;;;;;;;;5038159;28;20519;-86
2022/12/30 07:19:38;;;;;;;19.15;3.97;;;;;;;;;;5039108;28;20127;-86
2022/12/30 07:22:04;;;;;;;19.13;3.92;;;;;;;;;;5055733;28;20140;-86
2022/12/30 07:24:30;;;;;;;20.73;4.40;;;;;;;;;;5038676;28;20045;-88
2022/12/30 07:26:56;;;;;;;22.00;4.00;;;;;;;;;;5054833;28;20476;-86
2022/12/30 07:29:22;;;;;;;18.20;4.25;;;;;;;;;;5038119;28;20092;-86
2022/12/30 07:31:48;;;;;;;19.23;3.75;;;;;;;;;;5021980;28;20052;-86
2022/12/30 07:34:15;;;;;;;16.73;3.72;;;;;;;;;;5054295;28;20045;-87
2022/12/30 07:36:41;;;;;;;21.45;3.88;;;;;;;;;;5021671;28;20044;-87
2022/12/30 07:39:07;;;;;;;17.38;3.65;;;;;;;;;;5038770;28;20497;-87
2022/12/30 07:41:33;;;;;;;21.40;3.53;;;;;;;;;;5037673;28;20135;-87
2022/12/30 07:44:00;;;;;;;21.20;3.55;;;;;;;;;;5055170;28;20359;-87
2022/12/30 07:46:26;;;;;;;21.35;3.50;;;;;;;;;;5054503;28;20084;-87
2022/12/30 07:48:52;;;;;;;18.17;4.28;;;;;;;;;;5038232;28;20120;-87
2022/12/30 07:51:18;;;;;;;21.63;4.13;;;;;;;;;;5021630;28;20093;-87
2022/12/30 07:53:45;;;;;;;20.08;3.88;;;;;;;;;;5040199;28;20063;-87
2022/12/30 07:56:12;;;;;;;20.58;4.20;;;;;;;;;;5041889;28;20448;-88
2022/12/30 07:58:39;;;;;;;18.52;3.92;;;;;;;;;;5057612;28;20471;-87
2022/12/30 08:01:05;;;;;;;20.13;3.47;;;;;;;;;;5057570;28;20041;-87
2022/12/30 08:03:32;;;;;;;20.17;4.13;;;;;;;;;;5040924;28;20460;-88
2022/12/30 08:06:02;;;;;;;22.23;4.78;;;;;;;;;;5057484;28;20128;-87
2022/12/30 08:08:28;;;;;;;17.15;3.65;;;;;;;;;;5041680;28;20048;-88
2022/12/30 08:10:56;;;;;;;16.30;3.95;;;;;;;;;;5057333;28;20047;-87
2022/12/30 08:13:22;;;;;;;14.80;3.22;;;;;;;;;;5040792;28;20052;-87
2022/12/30 08:15:48;;;;;;;15.55;3.20;;;;;;;;;;5040759;28;20133;-87
2022/12/30 08:18:14;;;;;;;19.45;3.17;;;;;;;;;;5040598;28;20523;-87
2022/12/30 08:20:40;;;;;;;17.58;3.33;;;;;;;;;;5023773;28;20480;-87
2022/12/30 08:23:06;;;;;;;16.48;3.25;;;;;;;;;;5040112;28;20057;-87
2022/12/30 08:25:34;;;;;;;18.27;4.15;;;;;;;;;;5057820;28;20097;-87
2022/12/30 08:28:00;;;;;;;21.58;4.20;;;;;;;;;;5040455;28;20079;-87
2022/12/30 08:30:26;;;;;;;15.50;3.60;;;;;;;;;;5056927;28;20672;-89
2022/12/30 08:32:52;;;;;;;16.33;3.38;;;;;;;;;;5056608;28;20060;-86
2022/12/30 08:35:19;;;;;;;19.77;3.70;;;;;;;;;;5023860;28;20476;-84
2022/12/30 08:37:45;;;;;;;20.55;3.63;;;;;;;;;;5057625;28;20052;-89
2022/12/30 08:40:11;;;;;;;16.77;3.17;;;;;;;;;;5056765;28;20044;-89
2022/12/30 08:42:38;;;;;;;20.80;4.53;;;;;;;;;;5056688;28;20084;-91
2022/12/30 08:45:05;;;;;;;17.55;3.33;;;;;;;;;;5056709;28;20048;-86
2022/12/30 08:47:31;;;;;;;20.77;4.00;;;;;;;;;;5073278;28;20464;-88
2022/12/30 08:49:57;;;;;;;13.40;2.83;;;;;;;;;;5074325;28;20084;-87
2022/12/30 08:52:24;;;;;;;15.27;3.78;;;;;;;;;;5074213;28;20127;-90
2022/12/30 08:54:50;;;;;;;18.58;3.33;;;;;;;;;;5074541;28;20185;-91
2022/12/30 08:57:16;;;;;;;17.45;4.32;;;;;;;;;;5073784;28;20091;-91
2022/12/30 08:59:42;;;;;;;17.90;3.60;;;;;;;;;;5056431;28;20084;-90
2022/12/30 09:02:11;;;;;;;22.02;3.58;;;;;;;;;;5057300;28;20088;-90
2022/12/30 09:04:37;;;;;;;15.63;3.25;;;;;;;;;;5074090;28;20053;-88
2022/12/30 09:07:03;;;;;;;15.32;3.30;;;;;;;;;;5056692;28;20445;-89
2022/12/30 09:09:29;;;;;;;20.05;4.05;;;;;;;;;;5073809;28;20464;-90
2022/12/30 09:11:56;;;;;;;21.48;3.97;;;;;;;;;;5056528;28;20358;-89
2022/12/30 09:14:22;;;;;;;14.52;3.70;;;;;;;;;;5056125;28;20053;-88
2022/12/30 09:16:48;;;;;;;20.00;3.85;;;;;;;;;;5074016;28;20400;-87
2022/12/30 09:19:15;;;;;;;22.00;3.80;;;;;;;;;;5073812;28;20056;-88
2022/12/30 09:21:41;;;;;;;19.20;3.42;;;;;;;;;;5056073;28;20080;-88
2022/12/30 09:24:09;;;;;;;20.17;5.15;;;;;;;;;;5073401;28;20483;-88
2022/12/30 09:26:35;;;;;;;17.83;3.42;;;;;;;;;;5073697;28;20105;-87
2022/12/30 09:29:01;;;;;;;15.95;3.33;;;;;;;;;;5073614;28;20094;-88
2022/12/30 09:31:27;;;;;;;16.25;3.67;;;;;;;;;;5055876;28;20092;-86
2022/12/30 09:33:54;;;;;;;15.38;3.63;;;;;;;;;;5056674;28;20052;-87
2022/12/30 09:36:20;;;;;;;15.20;3.50;;;;;;;;;;5073532;28;20048;-86
2022/12/30 09:38:47;;;;;;;18.40;3.33;;;;;;;;;;5055863;28;20056;-89
2022/12/30 09:43:15;;;;;;;15.13;3.72;;;;;;;;;;5073496;28;20047;-82
2022/12/30 09:44:11;;;;;;;18.67;3.83;;;;;;;;;;5073370;28;20048;-89
2022/12/30 09:46:41;;;;;;;21.00;4.00;;;;;;;;;;5073465;28;20177;-86
2022/12/30 09:49:30;;;;;;;16.70;3.83;;;;;;;;;;5040013;28;20530;-89
2022/12/30 09:52:15;;;;;;;13.48;3.05;;;;;;;;;;5060412;28;20135;-87
2022/12/30 09:54:45;;;;;;;16.20;3.35;;;;;;;;;;5073194;28;20056;-89
2022/12/30 09:57:30;;;;;;;13.00;3.22;;;;;;;;;;5073170;28;20060;-92
2022/12/30 09:59:59;;;;;;;16.13;3.83;;;;;;;;;;5055851;28;20434;-85
2022/12/30 10:02:27;;;;;;;14.52;3.55;;;;;;;;;;5055203;28;20080;-87
2022/12/30 10:04:54;;;;;;;17.92;3.75;;;;;;;;;;5055764;28;20049;-79
2022/12/30 10:07:33;;;;;;;22.17;4.30;;;;;;;;;;5072870;28;20480;-77
2022/12/30 10:10:06;;;;;;;20.65;4.13;;;;;;;;;;5056029;28;20128;-82
2022/12/30 10:12:32;;;;;;;13.35;3.28;;;;;;;;;;5055505;28;20523;-82
2022/12/30 10:14:58;;;;;;;15.32;3.60;;;;;;;;;;5073108;28;20055;-81
2022/12/30 10:17:42;;;;;;;17.88;3.85;;;;;;;;;;5038848;28;20051;-73
2022/12/30 10:20:27;;;;;;;15.98;4.15;;;;;;;;;;5072655;28;20437;-73
2022/12/30 10:23:02;;;;;;;15.55;3.67;;;;;;;;;;5073060;28;20127;-74
2022/12/30 10:25:34;;;;;;;16.02;3.60;;;;;;;;;;5073009;28;20055;-75
2022/12/30 10:28:02;;;;;;;13.73;3.90;;;;;;;;;;5073276;28;20084;-76
2022/12/30 10:30:38;;;;;;;13.15;3.08;;;;;;;;;;5073151;28;20385;-84
2022/12/30 10:33:10;;;;;;;12.95;3.35;;;;;;;;;;5073397;28;20048;-81
2022/12/30 10:35:38;;;;;;;17.17;3.28;;;;;;;;;;5072804;28;20055;-80
2022/12/30 10:38:14;;;;;;;12.35;2.88;;;;;;;;;;5072858;28;20080;-88
2022/12/30 10:40:48;;;;;;;14.27;3.38;;;;;;;;;;5054975;28;20087;-91
2022/12/30 10:43:15;;;;;;;21.02;4.45;;;;;;;;;;5073446;28;20091;-88
2022/12/30 10:45:47;;;;;;;14.30;3.33;;;;;;;;;;5055348;28;20387;-87
2022/12/30 10:48:32;;;;;;;17.25;3.20;;;;;;;;;;5072845;28;20110;-85
2022/12/30 10:50:58;;;;;;;12.10;2.95;;;;;;;;;;5055143;28;20095;-86
2022/12/30 10:53:26;;;;;;;15.35;3.30;;;;;;;;;;5072943;28;20056;-87
2022/12/30 10:55:54;;;;;;;14.15;4.13;;;;;;;;;;5038474;28;20056;-86
2022/12/30 10:58:25;;;;;;;17.63;4.65;;;;;;;;;;5073450;28;20384;-78
2022/12/30 11:00:52;;;;;;;17.35;7.80;;;;;;;;;;5073691;28;20044;-87
2022/12/30 11:03:27;;;;;;;16.95;4.45;;;;;;;;;;5073446;28;20440;-85
2022/12/30 11:05:53;;;;;;;12.80;3.55;;;;;;;;;;5072658;28;20045;-84
2022/12/30 11:08:24;;;;;;;14.80;3.45;;;;;;;;;;5055699;28;20087;-86
2022/12/30 11:11:06;;;;;;;12.10;3.35;;;;;;;;;;5057398;28;20060;-83
2022/12/30 11:16:22;;;;;;;13.73;3.10;;;;;;;;;;5076105;28;20567;-87
2022/12/30 11:18:49;;;;;;;17.25;3.10;;;;;;;;;;5076599;28;20084;-87
2022/12/30 11:21:23;;;;;;;14.27;2.97;;;;;;;;;;5075966;28;20080;-85
2022/12/30 11:23:52;;;;;;;12.57;2.80;;;;;;;;;;5058518;28;20087;-86
2022/12/30 11:26:20;;;;;;;16.83;3.00;;;;;;;;;;5058003;28;20677;-87
2022/12/30 11:28:49;;;;;;;15.13;2.73;;;;;;;;;;5058654;28;20357;-82
2022/12/30 11:31:16;;;;;;;10.80;2.33;;;;;;;;;;5076985;28;20391;-83
2022/12/30 11:33:49;;;;;;;12.77;3.00;;;;;;;;;;5076262;28;20371;-83
2022/12/30 11:36:15;;;;;;;15.82;3.25;;;;;;;;;;5075755;28;20048;-83
2022/12/30 11:38:42;;;;;;;11.50;3.10;;;;;;;;;;5076084;28;20044;-83
2022/12/30 11:41:17;;;;;;;10.18;2.70;;;;;;;;;;5076259;28;20350;-87
2022/12/30 11:43:51;;;;;;;12.45;3.28;;;;;;;;;;5058691;28;20090;-89
2022/12/30 11:46:22;;;;;;;9.30;2.40;;;;;;;;;;5057884;28;20057;-88
2022/12/30 11:48:54;;;;;;;8.05;2.30;;;;;;;;;;5076280;28;20282;-88
2022/12/30 11:51:20;;;;;;;9.90;2.33;;;;;;;;;;5075465;28;20127;-86
2022/12/30 11:53:47;;;;;;;9.37;2.17;;;;;;;;;;5057274;28;20736;-89
2022/12/30 11:56:20;;;;;;;9.80;2.17;;;;;;;;;;5058220;28;20639;-87
2022/12/30 11:58:46;;;;;;;11.13;2.20;;;;;;;;;;5057393;28;20373;-86
2022/12/30 12:01:12;;;;;;;10.17;2.10;;;;;;;;;;5075177;28;20385;-87
2022/12/30 12:03:56;;;;;;;9.43;2.30;;;;;;;;;;5040944;28;20298;-86
2022/12/30 12:06:22;;;;;;;8.93;2.00;;;;;;;;;;5074887;28;20772;-87
2022/12/30 12:08:53;;;;;;;11.18;1.95;;;;;;;;;;5075627;28;20131;-82
2022/12/30 12:11:21;;;;;;;7.10;2.00;;;;;;;;;;5075381;28;20041;-87
2022/12/30 12:13:58;;;;;;;9.30;1.90;;;;;;;;;;5074976;28;20773;-87
2022/12/30 12:16:38;;;;;;;11.07;2.58;;;;;;;;;;5075518;28;20049;-86
2022/12/30 12:19:14;;;;;;;7.97;1.83;;;;;;;;;;5075580;28;20048;-88
2022/12/30 12:21:41;;;;;;;11.20;2.40;;;;;;;;;;5056001;28;20368;-82
2022/12/30 12:24:25;;;;;;;9.00;2.40;;;;;;;;;;5075541;28;20290;-84
2022/12/30 12:26:51;;;;;;;9.77;2.05;;;;;;;;;;5075282;28;20369;-88
2022/12/30 12:29:18;;;;;;;7.63;1.93;;;;;;;;;;5056993;28;20131;-87
2022/12/30 12:31:47;;;;;;;9.57;2.47;;;;;;;;;;5056997;28;20802;-89
2022/12/30 12:34:13;;;;;;;12.53;2.43;;;;;;;;;;5057547;28;20671;-87
2022/12/30 12:36:39;;;;;;;8.53;2.07;;;;;;;;;;5056985;28;20371;-85
2022/12/30 12:39:10;;;;;;;6.30;2.07;;;;;;;;;;5056880;28;20762;-77
2022/12/30 12:41:42;;;;;;;8.23;1.80;;;;;;;;;;5075281;28;20338;-82
2022/12/30 12:44:20;;;;;;;6.77;1.83;;;;;;;;;;5056799;28;20286;-82
2022/12/30 12:46:58;;;;;;;8.40;1.90;;;;;;;;;;5074242;28;20289;-83
2022/12/30 12:49:24;;;;;;;10.00;1.90;;;;;;;;;;5074275;28;20363;-80
2022/12/30 12:52:08;;;;;;;9.03;1.47;;;;;;;;;;5074689;28;20279;-80
2022/12/30 12:55:00;;;;;;;8.67;1.80;;;;;;;;;;5073986;28;20287;-81
2022/12/30 12:57:45;;;;;;;7.73;1.60;;;;;;;;;;5036004;28;20759;-81
2022/12/30 13:00:12;;;;;;;8.97;1.70;;;;;;;;;;5074180;28;20345;-82
2022/12/30 13:02:57;;;;;;;9.27;1.70;;;;;;;;;;5074796;28;20287;-85
2022/12/30 13:05:23;;;;;;;8.37;1.60;;;;;;;;;;5074714;28;20608;-84
2022/12/30 13:07:49;;;;;;;3.97;1.40;;;;;;;;;;5074090;28;20283;-84
2022/12/30 13:10:15;;;;;;;7.27;2.33;;;;;;;;;;5073901;28;20283;-85
2022/12/30 13:13:08;;;;;;;7.20;1.60;;;;;;;;;;5074089;28;20337;-87
2022/12/30 13:15:37;;;;;;;6.73;1.70;;;;;;;;;;5051452;28;20322;-88
2022/12/30 13:18:05;;;;;;;6.53;1.77;;;;;;;;;;5073859;28;20762;-85
2022/12/30 13:20:40;;;;;;;7.67;1.77;;;;;;;;;;5055957;28;20306;-86
2022/12/30 13:23:06;;;;;;;7.50;1.70;;;;;;;;;;5073953;28;20778;-88
2022/12/30 13:25:35;;;;;;;8.47;2.00;;;;;;;;;;5056077;28;20047;-86
2022/12/30 13:28:02;;;;;;;9.20;1.73;;;;;;;;;;5055951;28;20283;-89
2022/12/30 13:30:52;;;;;;;7.80;1.70;;;;;;;;;;5073871;28;20362;-83
2022/12/30 13:33:22;;;;;;;13.80;2.20;;;;;;;;;;5073113;28;20291;-86
2022/12/30 13:35:50;;;;;;;8.70;1.80;;;;;;;;;;5056198;28;20290;-86
2022/12/30 13:38:30;;;;;;;9.00;1.70;;;;;;;;;;5055524;28;20286;-83
2022/12/30 13:41:22;;;;;;;9.73;2.03;;;;;;;;;;5056391;28;20302;-85
2022/12/30 13:43:58;;;;;;;5.80;1.50;;;;;;;;;;5056490;28;20295;-77
2022/12/30 13:46:29;;;;;;;6.50;1.40;;;;;;;;;;5056188;28;20329;-86
2022/12/30 13:48:59;;;;;;;6.57;1.47;;;;;;;;;;5073286;28;20361;-81
2022/12/30 13:51:26;;;;;;;8.87;1.90;;;;;;;;;;5073580;28;20895;-90
2022/12/30 13:53:56;;;;;;;8.03;1.67;;;;;;;;;;5041117;28;20314;-83
2022/12/30 13:56:42;;;;;;;9.30;2.10;;;;;;;;;;5062737;28;20279;-87
2022/12/30 13:59:28;;;;;;;7.10;1.40;;;;;;;;;;5073354;28;20298;-82
2022/12/30 14:02:13;;;;;;;9.37;2.23;;;;;;;;;;5055333;28;20326;-84
2022/12/30 14:04:52;;;;;;;8.25;1.92;;;;;;;;;;5073142;28;20762;-88
2022/12/30 14:07:37;;;;;;;8.93;1.87;;;;;;;;;;5073146;28;20090;-86
2022/12/30 14:10:16;;;;;;;9.00;2.00;;;;;;;;;;5073079;28;20281;-92
2022/12/30 14:12:46;;;;;;;11.00;2.87;;;;;;;;;;5073692;28;20274;-88
2022/12/30 14:15:30;;;;;;;8.57;2.47;;;;;;;;;;5073026;28;20360;-80
2022/12/30 14:17:58;;;;;;;9.23;1.80;;;;;;;;;;5073575;28;20294;-87
2022/12/30 14:20:26;;;;;;;10.10;3.90;;;;;;;;;;5055214;28;20328;-91
2022/12/30 14:22:57;;;;;;;10.53;2.43;;;;;;;;;;5055406;28;20770;-88
2022/12/30 14:25:36;;;;;;;7.63;2.53;;;;;;;;;;5073500;28;20282;-89
2022/12/30 14:28:04;;;;;;;13.93;2.30;;;;;;;;;;5056073;28;20309;-82
2022/12/30 14:30:33;;;;;;;8.73;2.67;;;;;;;;;;5039218;28;20302;-88
2022/12/30 14:33:03;;;;;;;7.00;2.47;;;;;;;;;;5073667;28;20623;-90
2022/12/30 14:35:29;;;;;;;11.37;2.77;;;;;;;;;;5054856;28;20798;-86
2022/12/30 14:38:34;;;;;;;10.33;3.43;;;;;;;;;;5072778;28;20421;-87
2022/12/30 14:41:04;;;;;;;7.83;2.60;;;;;;;;;;4955596;28;20305;-83
2022/12/30 14:43:32;;;;;;;14.00;3.80;;;;;;;;;;4955880;28;20333;-89
2022/12/30 14:46:17;;;;;;;8.47;2.80;;;;;;;;;;5010652;28;20374;-84
2022/12/30 14:49:00;;;;;;;10.05;3.30;;;;;;;;;;5076478;28;20362;-84
2022/12/30 14:51:27;;;;;;;8.83;2.80;;;;;;;;;;5077260;28;20106;-82
2022/12/30 14:53:53;;;;;;;11.13;5.20;;;;;;;;;;5076288;28;20373;-86
2022/12/30 14:56:20;;;;;;;16.10;6.93;;;;;;;;;;5059047;28;20285;-85
2022/12/30 14:58:47;;;;;;;10.87;4.27;;;;;;;;;;5059004;28;20365;-89
2022/12/30 15:01:13;;;;;;;7.90;2.47;;;;;;;;;;5076508;28;20639;-87
2022/12/30 15:03:39;;;;;;;14.07;7.20;;;;;;;;;;5058791;28;20369;-82
2022/12/30 15:06:07;;;;;;;13.00;6.07;;;;;;;;;;5076282;28;20362;-83
2022/12/30 15:08:35;;;;;;;6.60;3.00;;;;;;;;;;5076931;28;20318;-84
2022/12/30 15:11:03;;;;;;;13.37;6.47;;;;;;;;;;5076050;28;20274;-81
2022/12/30 15:13:37;;;;;;;10.43;4.57;;;;;;;;;;5076130;28;20314;-85
2022/12/30 15:16:05;;;;;;;5.47;1.70;;;;;;;;;;5058993;28;20338;-88
2022/12/30 15:18:34;;;;;;;11.77;5.70;;;;;;;;;;5059259;28;20294;-88
2022/12/30 15:21:18;;;;;;;10.13;2.13;;;;;;;;;;5058273;28;20383;-87
2022/12/30 15:24:00;;;;;;;7.77;2.60;;;;;;;;;;5076683;28;20323;-81
2022/12/30 15:26:28;;;;;;;10.60;2.40;;;;;;;;;;5076460;28;20282;-82
2022/12/30 15:28:54;;;;;;;5.97;1.90;;;;;;;;;;5058644;28;20283;-84
2022/12/30 15:31:33;;;;;;;8.07;2.50;;;;;;;;;;5058388;28;20785;-86
2022/12/30 15:34:01;;;;;;;6.27;2.20;;;;;;;;;;5058845;28;20290;-83
2022/12/30 15:36:31;;;;;;;5.03;1.70;;;;;;;;;;5058554;28;20278;-78